createdAt,value
2018-07-11T00:00:17.421Z,5.92
2018-07-11T00:02:45.888Z,6.57
2018-07-11T00:05:14.246Z,6.57
2018-07-11T00:07:42.587Z,4.33
2018-07-11T00:10:10.673Z,6.07
2018-07-11T00:12:38.863Z,5.70
2018-07-11T00:15:07.270Z,4.93
2018-07-11T00:17:35.637Z,5.93
2018-07-11T00:20:04.069Z,4.20
2018-07-11T00:22:32.424Z,4.90
2018-07-11T00:25:00.832Z,6.67
2018-07-11T00:27:29.155Z,3.93
2018-07-11T00:29:57.513Z,7.03
2018-07-11T00:32:27.190Z,4.37
2018-07-11T00:34:55.269Z,3.70
2018-07-11T00:37:23.517Z,5.20
2018-07-11T00:39:51.809Z,8.73
2018-07-11T00:42:20.192Z,7.25
2018-07-11T00:44:49.625Z,8.33
2018-07-11T00:47:18.147Z,5.37
2018-07-11T00:49:46.520Z,6.50
2018-07-11T00:52:14.916Z,5.30
2018-07-11T00:54:43.374Z,8.47
2018-07-11T00:57:11.825Z,3.80
2018-07-11T00:59:41.375Z,4.20
2018-07-11T01:02:09.814Z,6.17
2018-07-11T01:04:38.222Z,4.20
2018-07-11T01:07:09.185Z,4.47
2018-07-11T01:09:47.892Z,4.90
2018-07-11T01:12:16.289Z,5.00
2018-07-11T01:14:47.773Z,7.10
2018-07-11T01:17:34.428Z,6.73
2018-07-11T01:20:02.894Z,7.53
2018-07-11T01:22:31.179Z,10.10
2018-07-11T01:25:02.619Z,6.40
2018-07-11T01:27:35.255Z,7.20
2018-07-11T01:30:03.413Z,7.10
2018-07-11T01:32:31.783Z,10.33
2018-07-11T01:35:00.133Z,6.77
2018-07-11T01:37:28.478Z,10.00
2018-07-11T01:39:56.987Z,6.17
2018-07-11T01:42:25.395Z,6.37
2018-07-11T01:44:53.802Z,6.80
2018-07-11T01:47:22.175Z,4.60
2018-07-11T01:49:50.498Z,5.37
2018-07-11T01:52:36.779Z,8.33
2018-07-11T01:55:05.722Z,9.97
2018-07-11T01:57:34.084Z,9.07
2018-07-11T02:00:02.505Z,7.23
2018-07-11T02:02:30.857Z,7.00
2018-07-11T02:04:59.208Z,8.40
2018-07-11T02:07:27.640Z,8.27
2018-07-11T02:09:56.970Z,11.07
2018-07-11T02:12:25.041Z,7.87
2018-07-11T02:15:08.420Z,10.53
2018-07-11T02:17:38.489Z,10.10
2018-07-11T02:20:12.297Z,7.37
2018-07-11T02:22:41.243Z,4.97
2018-07-11T02:25:09.863Z,13.57
2018-07-11T02:27:37.998Z,8.57
2018-07-11T02:30:06.769Z,8.50
2018-07-11T02:32:35.948Z,5.47
2018-07-11T02:35:05.260Z,7.40
2018-07-11T02:37:33.596Z,7.47
2018-07-11T02:40:01.947Z,9.83
2018-07-11T02:42:30.276Z,6.93
2018-07-11T02:44:59.515Z,10.07
2018-07-11T02:47:44.177Z,12.47
2018-07-11T02:50:13.036Z,11.10
2018-07-11T02:52:41.900Z,10.10
2018-07-11T02:55:10.090Z,10.23
2018-07-11T02:57:38.134Z,10.27
2018-07-11T03:00:06.586Z,9.83
2018-07-11T03:02:36.217Z,11.75
2018-07-11T03:05:04.605Z,16.87
2018-07-11T03:07:32.895Z,11.78
2018-07-11T03:10:02.680Z,12.13
2018-07-11T03:12:31.406Z,10.33
2018-07-11T03:14:59.472Z,10.40
2018-07-11T03:17:27.532Z,11.80
2018-07-11T03:19:55.627Z,10.70
2018-07-11T03:22:23.672Z,10.58
2018-07-11T03:24:52.049Z,17.23
2018-07-11T03:27:20.444Z,11.93
2018-07-11T03:29:48.752Z,11.15
2018-07-11T03:32:17.077Z,10.90
2018-07-11T03:34:45.458Z,7.23
2018-07-11T03:37:14.856Z,9.37
2018-07-11T03:39:43.392Z,12.55
2018-07-11T03:42:11.840Z,10.43
2018-07-11T03:44:40.789Z,9.47
2018-07-11T03:47:09.314Z,8.75
2018-07-11T03:49:37.665Z,12.73
2018-07-11T03:52:06.330Z,13.70
2018-07-11T03:54:34.716Z,10.83
2018-07-11T03:57:04.237Z,8.70
2018-07-11T03:59:32.546Z,12.23
2018-07-11T04:02:01.517Z,9.13
2018-07-11T04:04:29.839Z,13.57
2018-07-11T04:06:58.164Z,9.27
2018-07-11T04:09:27.517Z,11.33
2018-07-11T04:11:55.846Z,10.83
2018-07-11T04:14:24.242Z,10.40
2018-07-11T04:16:53.499Z,10.73
2018-07-11T04:19:21.822Z,8.80
2018-07-11T04:21:50.170Z,7.87
2018-07-11T04:24:18.525Z,10.00
2018-07-11T04:26:46.873Z,9.33
2018-07-11T04:29:15.556Z,9.97
2018-07-11T04:31:45.240Z,11.23
2018-07-11T04:34:13.601Z,9.93
2018-07-11T04:36:41.947Z,10.08
2018-07-11T04:39:10.325Z,8.40
2018-07-11T04:41:38.764Z,9.90
2018-07-11T04:44:07.081Z,9.17
2018-07-11T04:46:35.605Z,10.83
2018-07-11T04:49:03.909Z,9.33
2018-07-11T04:51:32.496Z,9.30
2018-07-11T04:54:00.601Z,8.43
2018-07-11T04:56:29.084Z,9.00
2018-07-11T04:58:58.559Z,7.80
2018-07-11T05:01:26.689Z,8.10
2018-07-11T05:03:55.291Z,7.77
2018-07-11T05:06:26.564Z,10.53
2018-07-11T05:08:54.715Z,8.93
2018-07-11T05:11:23.037Z,8.00
2018-07-11T05:13:51.421Z,9.43
2018-07-11T05:16:20.905Z,10.50
2018-07-11T05:18:49.122Z,11.83
2018-07-11T05:21:17.527Z,10.17
2018-07-11T05:23:45.920Z,11.33
2018-07-11T05:26:14.259Z,10.50
2018-07-11T05:28:42.592Z,8.77
2018-07-11T05:31:14.456Z,10.37
2018-07-11T05:33:42.545Z,11.40
2018-07-11T05:36:10.672Z,9.73
2018-07-11T05:38:39.168Z,14.63
2018-07-11T05:41:08.889Z,9.33
2018-07-11T05:43:36.949Z,11.60
2018-07-11T05:46:05.429Z,10.77
2018-07-11T05:48:33.762Z,15.08
2018-07-11T05:51:02.254Z,9.28
2018-07-11T05:53:30.637Z,14.57
2018-07-11T05:55:59.030Z,11.43
2018-07-11T05:58:27.381Z,10.73
2018-07-11T06:00:55.813Z,15.08
2018-07-11T06:03:24.190Z,12.53
2018-07-11T06:05:52.557Z,12.28
2018-07-11T06:08:20.959Z,12.47
2018-07-11T06:10:49.045Z,11.03
2018-07-11T06:13:17.152Z,17.25
2018-07-11T06:15:45.585Z,11.90
2018-07-11T06:18:13.681Z,11.75
2018-07-11T06:20:42.032Z,12.28
2018-07-11T06:23:12.909Z,14.20
2018-07-11T06:25:42.048Z,15.23
2018-07-11T06:28:10.413Z,11.60
2018-07-11T06:30:38.510Z,12.23
2018-07-11T06:33:06.939Z,12.85
2018-07-11T06:35:35.293Z,10.98
2018-07-11T06:38:03.401Z,12.50
2018-07-11T06:40:32.600Z,12.30
2018-07-11T06:43:02.219Z,11.73
2018-07-11T06:45:30.552Z,13.68
2018-07-11T06:47:58.702Z,11.18
2018-07-11T06:50:27.894Z,10.88
2018-07-11T06:52:56.312Z,9.98
2018-07-11T06:55:25.864Z,9.70
2018-07-11T06:57:54.192Z,11.53
2018-07-11T07:00:22.347Z,10.60
2018-07-11T07:02:50.425Z,11.70
2018-07-11T07:05:18.598Z,10.45
2018-07-11T07:07:47.589Z,7.60
2018-07-11T07:10:15.771Z,12.20
2018-07-11T07:12:46.047Z,8.33
2018-07-11T07:15:30.600Z,11.60
2018-07-11T07:17:58.317Z,10.00
2018-07-11T07:20:26.438Z,9.43
2018-07-11T07:22:57.564Z,9.98
2018-07-11T07:25:28.674Z,12.68
2018-07-11T07:27:57.189Z,10.88
2018-07-11T07:30:29.168Z,9.93
2018-07-11T07:32:59.788Z,10.18
2018-07-11T07:35:31.421Z,8.58
2018-07-11T07:38:00.627Z,10.90
2018-07-11T07:40:30.489Z,10.43
2018-07-11T07:42:59.292Z,9.00
2018-07-11T07:45:27.746Z,9.43
2018-07-11T07:47:58.945Z,11.85
2018-07-11T07:50:29.742Z,10.35
2018-07-11T07:53:01.807Z,12.13
2018-07-11T07:55:31.628Z,10.50
2018-07-11T07:58:01.317Z,13.18
2018-07-11T08:00:31.941Z,11.28
2018-07-11T08:03:03.966Z,12.98
2018-07-11T08:05:32.803Z,9.20
2018-07-11T08:08:02.295Z,8.03
2018-07-11T08:10:31.865Z,9.15
2018-07-11T08:13:00.840Z,10.58
2018-07-11T08:15:31.210Z,11.33
2018-07-11T08:18:00.160Z,12.70
2018-07-11T08:20:32.390Z,9.58
2018-07-11T08:23:47.894Z,12.33
2018-07-11T08:26:52.634Z,8.95
2018-07-11T08:30:01.053Z,10.32
2018-07-11T08:33:07.073Z,9.50
2018-07-11T08:36:12.964Z,9.10
2018-07-11T08:39:24.589Z,8.75
2018-07-11T08:42:10.771Z,7.75
2018-07-11T08:45:19.255Z,6.67
2018-07-11T08:48:29.272Z,10.13
2018-07-11T08:51:05.104Z,7.97
2018-07-11T08:54:10.017Z,8.30
2018-07-11T08:57:05.463Z,7.25
2018-07-11T08:59:51.894Z,6.80
2018-07-11T09:02:43.276Z,7.90
2018-07-11T09:05:48.304Z,7.47
2018-07-11T09:08:37.004Z,10.80
2018-07-11T09:11:28.476Z,9.23
2018-07-11T09:14:47.599Z,7.33
2018-07-11T09:17:52.439Z,11.18
2018-07-11T09:21:11.197Z,7.67
2018-07-11T09:24:22.749Z,9.35
2018-07-11T09:26:52.380Z,6.62
2018-07-11T09:29:22.211Z,8.70
2018-07-11T09:31:52.449Z,7.60
2018-07-11T09:34:20.980Z,7.78
2018-07-11T09:36:49.437Z,7.58
2018-07-11T09:39:28.839Z,8.35
2018-07-11T09:41:57.360Z,7.30
2018-07-11T09:44:27.171Z,5.83
2018-07-11T09:46:57.135Z,6.12
2018-07-11T09:49:27.141Z,9.05
2018-07-11T09:51:55.748Z,5.40
2018-07-11T09:54:24.169Z,7.47
2018-07-11T09:56:52.758Z,4.72
2018-07-11T09:59:22.489Z,6.25
2018-07-11T10:01:50.894Z,5.45
2018-07-11T10:04:20.144Z,5.85
2018-07-11T10:06:48.503Z,5.08
2018-07-11T10:09:17.821Z,5.75
2018-07-11T10:11:46.147Z,6.42
2018-07-11T10:14:14.489Z,4.75
2018-07-11T10:16:43.784Z,6.75
2018-07-11T10:19:12.155Z,5.93
2018-07-11T10:21:40.681Z,6.60
2018-07-11T10:24:08.723Z,7.72
2018-07-11T10:26:37.097Z,4.78
2018-07-11T10:29:09.251Z,7.62
2018-07-11T10:31:37.663Z,6.12
2018-07-11T10:34:06.152Z,6.05
2018-07-11T10:36:34.265Z,7.60
2018-07-11T10:39:02.820Z,5.55
2018-07-11T10:41:32.011Z,7.53
2018-07-11T10:44:00.063Z,5.75
2018-07-11T10:46:28.469Z,6.72
2018-07-11T10:48:56.555Z,5.45
2018-07-11T10:51:25.543Z,5.70
2018-07-11T10:53:53.927Z,5.62
2018-07-11T10:56:22.012Z,6.30
2018-07-11T10:58:50.616Z,7.35
2018-07-11T11:01:20.027Z,6.47
2018-07-11T11:03:48.398Z,5.83
2018-07-11T11:06:16.803Z,6.78
2018-07-11T11:08:45.299Z,5.42
2018-07-11T11:11:13.622Z,4.90
2018-07-11T11:13:42.005Z,5.85
2018-07-11T11:16:10.410Z,7.42
2018-07-11T11:18:38.928Z,9.55
2018-07-11T11:21:07.331Z,8.18
2018-07-11T11:23:36.575Z,6.08
2018-07-11T11:26:08.086Z,7.12
2018-07-11T11:28:36.424Z,6.80
2018-07-11T11:31:04.840Z,5.67
2018-07-11T11:33:32.934Z,9.07
2018-07-11T11:36:01.434Z,9.90
2018-07-11T11:38:29.973Z,8.90
2018-07-11T11:40:58.325Z,7.70
2018-07-11T11:43:26.742Z,8.03
2018-07-11T11:45:54.861Z,6.10
2018-07-11T11:48:23.317Z,6.72
2018-07-11T11:50:51.376Z,7.22
2018-07-11T11:53:19.788Z,12.25
2018-07-11T11:55:48.158Z,5.58
2018-07-11T11:58:19.265Z,7.87
2018-07-11T12:00:47.357Z,5.55
2018-07-11T12:03:15.757Z,6.50
2018-07-11T12:05:44.112Z,5.85
2018-07-11T12:08:12.556Z,7.60
2018-07-11T12:10:41.819Z,5.53
2018-07-11T12:13:10.144Z,6.50
2018-07-11T12:15:38.270Z,5.75
2018-07-11T12:18:06.628Z,6.50
2018-07-11T12:20:36.508Z,7.00
2018-07-11T12:23:04.856Z,6.30
2018-07-11T12:25:33.214Z,7.23
2018-07-11T12:28:01.630Z,7.45
2018-07-11T12:30:31.622Z,9.70
2018-07-11T12:33:00.029Z,8.35
2018-07-11T12:35:29.659Z,6.80
2018-07-11T12:37:58.289Z,6.35
2018-07-11T12:40:26.704Z,6.60
2018-07-11T12:42:55.198Z,8.13
2018-07-11T12:45:24.262Z,7.40
2018-07-11T12:48:10.185Z,6.30
2018-07-11T12:50:38.429Z,8.33
2018-07-11T12:53:09.838Z,7.60
2018-07-11T12:55:39.220Z,6.90
2018-07-11T12:58:07.354Z,8.23
2018-07-11T13:00:36.681Z,8.05
2018-07-11T13:03:05.122Z,8.15
2018-07-11T13:05:33.531Z,7.87
2018-07-11T13:08:01.934Z,9.55
2018-07-11T13:10:30.923Z,10.93
2018-07-11T13:12:59.338Z,11.08
2018-07-11T13:15:28.841Z,12.13
2018-07-11T13:17:57.221Z,11.25
2018-07-11T13:20:25.717Z,10.98
2018-07-11T13:22:54.053Z,11.05
2018-07-11T13:25:22.774Z,10.38
2018-07-11T13:27:51.667Z,13.90
2018-07-11T13:30:20.447Z,11.65
2018-07-11T13:32:48.802Z,11.93
2018-07-11T13:35:17.813Z,10.93
2018-07-11T13:37:47.348Z,10.70
2018-07-11T13:40:16.982Z,10.63
2018-07-11T13:42:46.329Z,10.78
2018-07-11T13:45:15.971Z,10.82
2018-07-11T13:47:44.050Z,13.58
2018-07-11T13:50:13.432Z,11.83
2018-07-11T13:52:41.486Z,10.55
2018-07-11T13:55:10.766Z,11.55
2018-07-11T13:57:39.094Z,11.15
2018-07-11T14:00:07.690Z,10.75
2018-07-11T14:02:37.209Z,10.80
2018-07-11T14:05:06.581Z,9.85
2018-07-11T14:07:35.022Z,10.48
2018-07-11T14:10:03.385Z,10.58
2018-07-11T14:12:31.785Z,10.68
2018-07-11T14:14:59.874Z,10.00
2018-07-11T14:17:28.212Z,13.05
2018-07-11T14:19:56.673Z,9.88
2018-07-11T14:22:25.002Z,9.53
2018-07-11T14:24:53.476Z,11.60
2018-07-11T14:27:21.855Z,10.00
2018-07-11T14:29:51.497Z,9.00
2018-07-11T14:32:19.803Z,9.43
2018-07-11T14:34:48.235Z,9.10
2018-07-11T14:37:18.106Z,9.78
2018-07-11T14:39:46.529Z,10.38
2018-07-11T14:42:16.370Z,8.58
2018-07-11T14:44:46.428Z,9.75
2018-07-11T14:47:32.642Z,8.95
2018-07-11T14:50:00.726Z,8.88
2018-07-11T14:52:29.772Z,8.83
2018-07-11T14:54:58.224Z,8.25
2018-07-11T14:57:27.205Z,8.63
2018-07-11T14:59:57.589Z,7.95
2018-07-11T15:02:26.155Z,10.85
2018-07-11T15:04:57.742Z,9.40
2018-07-11T15:07:26.207Z,8.85
2018-07-11T15:09:56.080Z,7.87
2018-07-11T15:12:25.704Z,7.78
2018-07-11T15:14:54.033Z,7.92
2018-07-11T15:17:22.132Z,7.75
2018-07-11T15:19:50.720Z,6.85
2018-07-11T15:22:18.825Z,10.65
2018-07-11T15:24:48.857Z,8.00
2018-07-11T15:27:17.234Z,8.08
2018-07-11T15:29:47.954Z,6.83
2018-07-11T15:32:16.394Z,8.38
2018-07-11T15:34:44.758Z,6.47
2018-07-11T15:37:13.132Z,6.67
2018-07-11T15:39:46.962Z,6.10
2018-07-11T15:42:14.228Z,6.22
2018-07-11T15:44:44.075Z,5.80
2018-07-11T15:47:15.975Z,5.80
2018-07-11T15:49:44.075Z,5.30
2018-07-11T15:52:12.459Z,4.60
2018-07-11T15:54:41.768Z,4.90
2018-07-11T15:57:10.155Z,6.10
2018-07-11T16:00:06.155Z,4.75
2018-07-11T16:02:38.705Z,6.10
2018-07-11T16:05:06.818Z,4.45
2018-07-11T16:07:36.857Z,5.80
2018-07-11T16:10:05.224Z,4.65
2018-07-11T16:12:34.411Z,6.20
2018-07-11T16:15:02.808Z,5.78
2018-07-11T16:17:32.385Z,4.67
2018-07-11T16:20:00.717Z,4.40
2018-07-11T16:22:29.116Z,4.85
2018-07-11T16:24:57.385Z,4.80
2018-07-11T16:27:25.748Z,5.10
2018-07-11T16:29:55.186Z,4.92
2018-07-11T16:32:23.286Z,4.97
2018-07-11T16:34:52.828Z,4.40
2018-07-11T16:37:21.689Z,5.25
2018-07-11T16:39:50.066Z,5.62
2018-07-11T16:42:19.089Z,5.58
2018-07-11T16:44:48.471Z,9.53
2018-07-11T16:47:16.878Z,7.67
2018-07-11T16:49:45.229Z,5.03
2018-07-11T16:52:13.625Z,6.30
2018-07-11T16:54:43.416Z,5.95
2018-07-11T16:57:13.716Z,5.62
2018-07-11T16:59:50.551Z,5.47
2018-07-11T17:02:26.285Z,5.25
2018-07-11T17:04:56.300Z,5.97
2018-07-11T17:07:26.284Z,6.00
2018-07-11T17:09:55.700Z,6.05
2018-07-11T17:12:24.602Z,6.17
2018-07-11T17:14:53.658Z,5.95
2018-07-11T17:17:22.175Z,6.25
2018-07-11T17:20:10.953Z,5.90
2018-07-11T17:22:56.414Z,4.87
2018-07-11T17:25:28.734Z,6.95
2018-07-11T17:27:57.604Z,5.55
2018-07-11T17:30:26.714Z,4.95
2018-07-11T17:32:55.079Z,4.72
2018-07-11T17:35:23.427Z,5.37
2018-07-11T17:38:02.751Z,7.50
2018-07-11T17:40:39.381Z,5.17
2018-07-11T17:43:08.849Z,5.78
2018-07-11T17:45:38.186Z,5.50
2018-07-11T17:48:28.825Z,5.47
2018-07-11T17:51:02.285Z,7.20
2018-07-11T17:53:43.715Z,6.28
2018-07-11T17:56:13.017Z,5.65
2018-07-11T17:58:58.252Z,5.70
2018-07-11T18:01:36.539Z,6.00
2018-07-11T18:04:26.161Z,6.87
2018-07-11T18:07:19.288Z,6.97
2018-07-11T18:10:07.418Z,5.97
2018-07-11T18:12:58.487Z,7.30
2018-07-11T18:15:36.862Z,6.03
2018-07-11T18:18:55.427Z,11.25
2018-07-11T18:21:49.805Z,6.15
2018-07-11T18:24:37.867Z,6.60
2018-07-11T18:27:35.002Z,6.60
2018-07-11T18:30:29.328Z,5.55
2018-07-11T18:33:24.224Z,5.85
2018-07-11T18:36:02.849Z,9.23
2018-07-11T18:38:36.616Z,6.40
2018-07-11T18:41:09.249Z,6.05
2018-07-11T18:44:01.660Z,6.75
2018-07-11T18:46:43.390Z,5.37
2018-07-11T18:49:20.580Z,5.70
2018-07-11T18:52:17.697Z,5.75
2018-07-11T18:55:40.194Z,5.05
2018-07-11T18:58:25.511Z,5.90
2018-07-11T19:01:11.863Z,6.53
2018-07-11T19:04:25.158Z,6.10
2018-07-11T19:06:59.582Z,6.03
2018-07-11T19:09:43.991Z,7.47
2018-07-11T19:12:36.945Z,5.60
2018-07-11T19:15:17.769Z,6.00
2018-07-11T19:18:00.381Z,6.87
2018-07-11T19:20:39.142Z,6.22
2018-07-11T19:23:34.114Z,6.15
2018-07-11T19:26:22.131Z,6.22
2018-07-11T19:29:21.286Z,7.65
2018-07-11T19:32:14.146Z,5.75
2018-07-11T19:35:16.200Z,7.80
2018-07-11T19:38:06.619Z,8.33
2018-07-11T19:40:46.267Z,7.00
2018-07-11T19:43:37.236Z,7.37
2018-07-11T19:46:47.733Z,10.43
2018-07-11T19:49:38.459Z,7.85
2018-07-11T19:52:25.178Z,7.62
2018-07-11T19:55:43.727Z,6.78
2018-07-11T19:58:11.863Z,6.62
2018-07-11T20:00:40.285Z,8.53
2018-07-11T20:03:08.367Z,6.67
2018-07-11T20:05:36.764Z,7.62
2018-07-11T20:08:05.217Z,9.15
2018-07-11T20:10:34.209Z,6.47
2018-07-11T20:13:02.332Z,9.40
2018-07-11T20:15:30.666Z,9.40
2018-07-11T20:17:59.023Z,6.80
2018-07-11T20:20:27.155Z,7.62
2018-07-11T20:22:56.888Z,9.23
2018-07-11T20:25:26.046Z,6.72
2018-07-11T20:27:55.304Z,6.97
2018-07-11T20:30:23.368Z,7.33
2018-07-11T20:32:51.735Z,7.80
2018-07-11T20:35:21.515Z,8.48
2018-07-11T20:37:49.914Z,8.63
2018-07-11T20:40:19.169Z,7.97
2018-07-11T20:42:47.623Z,9.35
2018-07-11T20:45:16.524Z,9.95
2018-07-11T20:47:44.802Z,7.78
2018-07-11T20:50:13.152Z,8.63
2018-07-11T20:52:41.520Z,7.60
2018-07-11T20:55:09.888Z,13.28
2018-07-11T20:57:38.313Z,13.43
2018-07-11T21:00:25.680Z,10.18
2018-07-11T21:03:53.261Z,13.10
2018-07-11T21:06:52.895Z,11.53
2018-07-11T21:10:12.749Z,10.80
2018-07-11T21:13:23.101Z,12.07
2018-07-11T21:16:22.371Z,10.43
2018-07-11T21:19:07.158Z,11.00
2018-07-11T21:21:36.658Z,8.58
2018-07-11T21:24:06.079Z,11.60
2018-07-11T21:26:34.317Z,12.53
2018-07-11T21:29:02.463Z,7.92
2018-07-11T21:31:30.992Z,10.85
2018-07-11T21:34:01.462Z,8.73
2018-07-11T21:36:32.515Z,8.40
2018-07-11T21:39:01.054Z,8.28
2018-07-11T21:41:29.278Z,8.75
2018-07-11T21:43:57.684Z,8.18
2018-07-11T21:46:28.113Z,8.80
2018-07-11T21:48:56.425Z,9.33
2018-07-11T21:51:26.668Z,9.65
2018-07-11T21:53:54.999Z,10.95
2018-07-11T21:56:23.444Z,9.15
2018-07-11T21:58:51.968Z,8.55
2018-07-11T22:01:20.288Z,11.63
2018-07-11T22:03:49.250Z,10.03
2018-07-11T22:06:17.390Z,10.15
2018-07-11T22:08:48.770Z,9.58
2018-07-11T22:11:16.868Z,7.83
2018-07-11T22:13:45.546Z,9.23
2018-07-11T22:16:13.766Z,6.92
2018-07-11T22:18:45.897Z,9.85
2018-07-11T22:21:14.760Z,10.53
2018-07-11T22:23:42.405Z,10.15
2018-07-11T22:26:09.776Z,13.70
2018-07-11T22:28:40.013Z,10.60
2018-07-11T22:31:07.334Z,8.90
2018-07-11T22:33:34.645Z,7.35
2018-07-11T22:36:02.039Z,7.72
2018-07-11T22:38:29.476Z,9.40
2018-07-11T22:40:56.784Z,8.58
2018-07-11T22:43:24.375Z,8.68
2018-07-11T22:45:54.582Z,6.50
2018-07-11T22:48:21.889Z,7.70
2018-07-11T22:50:49.207Z,13.25
2018-07-11T22:53:16.494Z,9.25
2018-07-11T22:55:43.833Z,10.38
2018-07-11T22:58:11.138Z,12.77
2018-07-11T23:00:38.806Z,9.95
2018-07-11T23:03:06.078Z,11.48
2018-07-11T23:05:33.438Z,9.53
2018-07-11T23:08:00.792Z,10.60
2018-07-11T23:10:28.300Z,7.65
2018-07-11T23:12:55.884Z,8.03
2018-07-11T23:15:23.433Z,7.62
2018-07-11T23:17:50.973Z,10.35
2018-07-11T23:20:20.996Z,11.12
2018-07-11T23:22:50.211Z,9.53
2018-07-11T23:25:17.807Z,12.15
2018-07-11T23:27:45.222Z,14.85
2018-07-11T23:30:12.773Z,11.65
2018-07-11T23:32:40.343Z,10.58
2018-07-11T23:35:07.921Z,8.25
2018-07-11T23:37:35.309Z,10.60
2018-07-11T23:40:02.630Z,14.17
2018-07-11T23:42:32.566Z,7.30
2018-07-11T23:44:59.848Z,10.47
2018-07-11T23:47:27.144Z,6.70
2018-07-11T23:49:55.479Z,8.65
2018-07-11T23:52:25.657Z,14.50
2018-07-11T23:54:54.518Z,14.50
2018-07-11T23:57:23.145Z,9.10
2018-07-11T23:59:50.512Z,8.38
